Time;durP1;ratioP1;P1;durP2;ratioP2;P2;SDS_P1;SDS_P2;PMS_P1;PMS_P2;Temp;Humidity;BMP_temperature;BMP_pressure;BME280_temperature;BME280_humidity;BME280_pressure;Samples;Min_cycle;Max_cycle;Signal;HPM_P1;HPM_P2
2022/08/01 00:00:12;;;;;;;3.25;1.98;;;;;;;19.85;100.00;100620.56;5009349;28;20056;-63
2022/08/01 00:02:39;;;;;;;2.97;2.20;;;;;;;19.80;100.00;100624.84;5008414;28;20080;-63
2022/08/01 00:05:06;;;;;;;4.53;3.38;;;;;;;19.96;100.00;100620.97;5008738;28;20057;-63
2022/08/01 00:07:36;;;;;;;10.20;3.75;;;;;;;20.06;100.00;100622.22;5007609;28;20490;-61
2022/08/01 00:10:04;;;;;;;3.47;2.97;;;;;;;20.08;100.00;100625.47;5002957;28;20033;-63
2022/08/01 00:12:29;;;;;;;3.45;3.20;;;;;;;20.07;100.00;100623.03;4989313;28;20109;-62
2022/08/01 00:14:55;;;;;;;3.85;3.10;;;;;;;20.02;100.00;100625.47;5006812;28;20117;-63
2022/08/01 00:17:23;;;;;;;5.03;3.50;;;;;;;20.04;100.00;100629.53;5008915;28;20041;-61
2022/08/01 00:19:48;;;;;;;3.92;2.75;;;;;;;20.00;100.00;100623.03;5007596;28;20115;-62
2022/08/01 00:22:14;;;;;;;3.50;3.25;;;;;;;20.03;100.00;100621.81;5009035;28;20069;-61
2022/08/01 00:24:39;;;;;;;4.70;3.33;;;;;;;20.04;100.00;100621.59;5008727;28;20030;-60
2022/08/01 00:27:05;;;;;;;2.35;2.15;;;;;;;20.00;100.00;100617.75;5008358;28;20032;-64
2022/08/01 00:29:30;;;;;;;2.83;2.22;;;;;;;19.97;100.00;100617.31;5008507;28;20037;-61
2022/08/01 00:31:56;;;;;;;3.88;2.17;;;;;;;19.97;100.00;100612.03;4990955;28;20018;-60
2022/08/01 00:34:21;;;;;;;2.63;1.48;;;;;;;19.97;100.00;100617.31;5008515;28;20064;-60
2022/08/01 00:36:47;;;;;;;5.30;2.42;;;;;;;19.89;100.00;100605.09;5008746;28;20113;-61
2022/08/01 00:39:12;;;;;;;2.67;2.47;;;;;;;19.96;100.00;100613.88;5006597;28;20041;-64
2022/08/01 00:41:38;;;;;;;3.65;2.92;;;;;;;20.01;100.00;100615.91;5008852;28;20037;-63
2022/08/01 00:44:05;;;;;;;4.85;3.13;;;;;;;20.06;100.00;100616.94;5007872;28;20095;-63
2022/08/01 00:46:31;;;;;;;5.78;2.70;;;;;;;20.04;100.00;100612.84;5008622;28;20777;-61
2022/08/01 00:48:57;;;;;;;4.95;2.60;;;;;;;20.04;100.00;100618.97;5007376;28;20026;-62
2022/08/01 00:51:33;;;;;;;4.82;3.22;;;;;;;20.05;100.00;100612.66;5008368;28;20174;-62
2022/08/01 00:54:00;;;;;;;3.55;2.95;;;;;;;20.07;100.00;100617.75;4990834;28;20068;-61
2022/08/01 00:56:26;;;;;;;3.55;3.25;;;;;;;20.06;100.00;100616.13;5005613;28;20442;-63
2022/08/01 00:58:52;;;;;;;5.55;3.53;;;;;;;20.07;100.00;100613.28;5007164;28;20036;-63
2022/08/01 01:01:20;;;;;;;4.20;3.42;;;;;;;20.07;100.00;100617.75;5008277;28;20405;-60
2022/08/01 01:03:46;;;;;;;2.90;2.70;;;;;;;20.11;100.00;100618.97;4989832;28;20137;-61
2022/08/01 01:06:41;;;;;;;3.03;2.75;;;;;;;20.04;100.00;100618.97;5008440;28;20084;-63
2022/08/01 01:09:34;;;;;;;3.28;3.05;;;;;;;20.03;100.00;100621.81;4998233;28;20505;-60
2022/08/01 01:12:15;;;;;;;4.15;2.92;;;;;;;20.02;100.00;100618.34;5007435;28;20498;-63
2022/08/01 01:15:01;;;;;;;4.68;2.60;;;;;;;20.05;100.00;100614.50;4994378;28;20124;-64
2022/08/01 01:17:57;;;;;;;5.00;3.33;;;;;;;20.02;100.00;100610.41;4992613;28;20045;-64
2022/08/01 01:20:30;;;;;;;3.40;3.10;;;;;;;20.04;100.00;100608.38;5003640;28;20119;-61
2022/08/01 01:23:43;;;;;;;4.25;2.92;;;;;;;19.99;100.00;100605.53;5012429;28;20034;-59
2022/08/01 01:26:30;;;;;;;4.93;3.72;;;;;;;20.02;100.00;100612.25;4941229;28;20049;-62
2022/08/01 01:29:08;;;;;;;5.32;3.53;;;;;;;20.05;100.00;100609.19;5009864;28;20044;-60
2022/08/01 01:31:58;;;;;;;4.03;3.40;;;;;;;20.02;100.00;100605.13;5011501;28;21780;-62
2022/08/01 01:34:26;;;;;;;3.15;2.95;;;;;;;20.03;100.00;100601.47;4994197;28;20124;-63
2022/08/01 01:36:56;;;;;;;3.85;3.00;;;;;;;19.99;100.00;100615.28;4994223;28;20509;-63
2022/08/01 01:39:25;;;;;;;3.72;3.40;;;;;;;19.98;100.00;100603.09;5010865;28;20179;-61
2022/08/01 01:41:54;;;;;;;4.65;3.60;;;;;;;19.94;100.00;100602.69;5012017;28;20040;-62
2022/08/01 01:44:19;;;;;;;3.55;2.88;;;;;;;19.93;100.00;100606.34;5011317;28;20060;-61
2022/08/01 01:46:47;;;;;;;3.30;3.10;;;;;;;19.90;100.00;100609.38;5011700;28;20479;-63
2022/08/01 01:49:13;;;;;;;2.63;2.42;;;;;;;19.83;100.00;100606.75;4992725;28;20028;-62
2022/08/01 01:51:42;;;;;;;3.65;3.35;;;;;;;19.82;100.00;100606.97;5011740;28;20033;-63
2022/08/01 01:54:09;;;;;;;4.28;3.00;;;;;;;19.83;100.00;100611.22;5011445;28;20132;-63
2022/08/01 01:56:48;;;;;;;4.60;3.33;;;;;;;19.80;100.00;100607.16;5011684;28;20037;-62
2022/08/01 01:59:18;;;;;;;4.15;3.10;;;;;;;19.73;100.00;100608.97;5008857;28;20026;-63
2022/08/01 02:01:46;;;;;;;1.75;1.00;;;;;;;19.53;100.00;100619.50;4993564;28;20406;-63
2022/08/01 02:04:12;;;;;;;2.15;1.33;;;;;;;19.46;100.00;100610.69;5011147;28;20061;-63
2022/08/01 02:06:39;;;;;;;4.28;1.48;;;;;;;19.42;100.00;100619.22;5011493;28;20056;-61
2022/08/01 02:09:06;;;;;;;1.80;1.60;;;;;;;19.46;100.00;100612.50;5010458;28;20036;-62
2022/08/01 02:11:32;;;;;;;6.55;2.30;;;;;;;19.46;100.00;100610.69;5011117;28;20025;-60
2022/08/01 02:14:02;;;;;;;1.88;1.60;;;;;;;19.44;100.00;100615.34;5009409;28;20037;-64
2022/08/01 02:16:33;;;;;;;7.25;2.10;;;;;;;19.48;100.00;100619.22;5010560;28;20021;-64
2022/08/01 02:18:59;;;;;;;10.43;2.65;;;;;;;19.44;100.00;100619.81;5010580;28;20030;-62
2022/08/01 02:21:34;;;;;;;3.03;2.60;;;;;;;19.40;100.00;100615.94;4972860;28;20410;-63
2022/08/01 02:24:12;;;;;;;3.10;1.60;;;;;;;19.29;100.00;100609.44;4991547;28;20392;-62
2022/08/01 02:26:41;;;;;;;2.25;1.00;;;;;;;19.23;100.00;100626.06;4990674;28;20034;-60
2022/08/01 02:29:11;;;;;;;1.20;0.90;;;;;;;19.24;100.00;100611.84;5001789;28;20033;-63
2022/08/01 02:31:41;;;;;;;2.70;1.52;;;;;;;19.34;100.00;100611.47;5011145;28;20377;-61
2022/08/01 02:34:10;;;;;;;4.03;1.85;;;;;;;19.38;100.00;100613.50;5010983;28;20030;-61
2022/08/01 02:36:37;;;;;;;2.50;2.28;;;;;;;19.37;100.00;100609.25;4993096;28;20038;-61
2022/08/01 02:39:12;;;;;;;6.30;2.20;;;;;;;19.33;100.00;100605.38;5009563;28;20045;-61
2022/08/01 02:41:39;;;;;;;;;;;;;;;19.08;100.00;100612.19;5011148;28;20025;-61
2022/08/01 02:44:09;;;;;;;3.28;1.80;;;;;;;19.13;100.00;100604.47;4992397;28;19987;-61
2022/08/01 02:46:44;;;;;;;2.90;2.20;;;;;;;19.08;100.00;100607.72;5010499;28;20442;-61
2022/08/01 02:49:11;;;;;;;2.97;2.63;;;;;;;19.11;100.00;100614.44;5009167;28;20045;-61
2022/08/01 02:51:39;;;;;;;4.40;2.20;;;;;;;19.17;100.00;100609.19;5009827;28;20549;-62
2022/08/01 02:54:07;;;;;;;3.88;2.47;;;;;;;19.18;100.00;100616.09;4992572;28;20026;-62
2022/08/01 02:56:35;;;;;;;2.40;2.20;;;;;;;19.19;100.00;100611.63;5010683;28;20034;-61
2022/08/01 02:59:06;;;;;;;3.30;3.10;;;;;;;19.19;100.00;100615.06;5003661;28;20509;-60
2022/08/01 03:01:34;;;;;;;2.70;2.50;;;;;;;19.13;100.00;100615.88;4990956;28;20026;-62
2022/08/01 03:04:00;;;;;;;3.88;2.88;;;;;;;19.11;100.00;100617.06;4972960;28;20076;-62
2022/08/01 03:06:26;;;;;;;9.30;3.30;;;;;;;19.11;100.00;100619.72;4990746;28;20519;-62
2022/08/01 03:08:55;;;;;;;3.40;3.10;;;;;;;19.12;100.00;100613.41;4992830;28;20084;-63
2022/08/01 03:11:23;;;;;;;5.40;2.90;;;;;;;19.11;100.00;100611.78;4973370;28;20041;-62
2022/08/01 03:13:51;;;;;;;3.42;3.13;;;;;;;19.14;100.00;100614.03;4959501;28;20049;-62
2022/08/01 03:16:19;;;;;;;4.20;3.03;;;;;;;19.17;100.00;100616.28;5008823;28;20799;-62
2022/08/01 03:21:40;;;;;;;2.60;2.40;;;;;;;18.98;100.00;100609.06;5260158;22;20077;-83
2022/08/01 03:24:09;;;;;;;2.33;1.23;;;;;;;18.96;100.00;100613.75;5017896;28;20053;-83
2022/08/01 03:26:36;;;;;;;1.25;1.05;;;;;;;18.93;100.00;100614.13;5049269;28;20103;-84
2022/08/01 03:29:07;;;;;;;5.72;1.20;;;;;;;18.98;100.00;100619.63;5049131;28;20060;-84
2022/08/01 03:31:38;;;;;;;2.00;0.95;;;;;;;18.92;100.00;100615.13;5049175;28;20500;-84
2022/08/01 03:34:05;;;;;;;1.40;0.80;;;;;;;18.95;100.00;100617.38;5031286;28;20040;-84
2022/08/01 03:36:33;;;;;;;2.65;0.80;;;;;;;18.84;100.00;100611.66;5048857;28;20108;-84
2022/08/01 03:39:02;;;;;;;3.38;1.13;;;;;;;18.77;100.00;100610.00;5049015;28;20554;-84
2022/08/01 03:41:33;;;;;;;2.40;0.90;;;;;;;18.79;100.00;100613.25;5030816;28;20021;-83
2022/08/01 03:44:07;;;;;;;4.78;0.88;;;;;;;18.76;100.00;100609.19;5048941;28;20041;-88
2022/08/01 03:46:57;;;;;;;1.80;0.60;;;;;;;18.83;100.00;100607.41;5048989;28;20527;-85
2022/08/01 03:49:25;;;;;;;3.50;1.10;;;;;;;18.89;100.00;100611.91;5048427;28;20032;-84
2022/08/01 03:51:55;;;;;;;1.52;0.90;;;;;;;19.01;100.00;100611.34;5048678;28;20033;-84
2022/08/01 03:54:24;;;;;;;3.63;1.25;;;;;;;19.00;100.00;100612.34;5049159;28;20029;-86
2022/08/01 03:56:51;;;;;;;2.47;1.42;;;;;;;18.98;100.00;100611.72;5030682;28;20481;-85
2022/08/01 03:59:18;;;;;;;1.65;1.55;;;;;;;18.98;100.00;100611.72;5030638;28;20035;-83
2022/08/01 04:01:45;;;;;;;6.63;0.90;;;;;;;18.90;100.00;100605.59;5048381;28;20048;-85
2022/08/01 04:04:12;;;;;;;1.60;1.50;;;;;;;18.99;100.00;100608.06;5030486;28;20032;-84
2022/08/01 04:06:38;;;;;;;1.20;0.68;;;;;;;18.87;100.00;100618.38;5049062;28;20032;-84
2022/08/01 04:09:04;;;;;;;1.48;0.60;;;;;;;18.87;100.00;100616.56;5031142;28;20075;-83
2022/08/01 04:11:29;;;;;;;1.48;0.68;;;;;;;18.87;100.00;100610.47;5048805;28;20025;-83
2022/08/01 04:13:55;;;;;;;1.15;0.70;;;;;;;18.90;100.00;100608.22;5049011;28;20082;-82
2022/08/01 04:16:22;;;;;;;3.42;0.88;;;;;;;18.92;100.00;100609.84;5048722;28;20432;-82
2022/08/01 04:18:47;;;;;;;2.50;1.02;;;;;;;18.94;100.00;100615.75;5048907;28;20025;-82
2022/08/01 04:21:16;;;;;;;3.35;0.88;;;;;;;18.96;100.00;100608.47;5048422;28;20048;-83
2022/08/01 04:24:04;;;;;;;2.03;1.50;;;;;;;18.98;100.00;100611.72;5048806;28;20021;-82
2022/08/01 04:26:33;;;;;;;2.85;1.60;;;;;;;19.01;100.00;100606.88;5048510;28;20118;-83
2022/08/01 04:29:02;;;;;;;4.40;1.40;;;;;;;19.04;100.00;100606.47;5030658;28;20029;-83
2022/08/01 04:33:55;;;;;;;4.10;1.77;;;;;;;19.08;100.00;100605.06;5013156;23;20127;-82
2022/08/01 04:36:23;;;;;;;3.22;1.73;;;;;;;19.19;100.00;100607.16;5028901;28;20033;-83
2022/08/01 04:38:52;;;;;;;2.42;1.30;;;;;;;19.19;100.00;100611.63;5045788;28;20032;-83
2022/08/01 04:41:18;;;;;;;2.83;1.67;;;;;;;19.11;100.00;100611.78;5054596;28;20061;-83
2022/08/01 04:43:47;;;;;;;1.90;1.38;;;;;;;19.12;100.00;100610.78;5042445;28;20042;-83
2022/08/01 04:46:19;;;;;;;4.25;1.65;;;;;;;19.04;100.00;100606.47;5032035;28;20477;-84
2022/08/01 04:48:46;;;;;;;2.90;2.20;;;;;;;19.18;100.00;100612.63;5030048;28;20036;-84
2022/08/01 04:51:16;;;;;;;2.67;1.98;;;;;;;19.17;100.00;100605.72;5028699;28;20480;-84
2022/08/01 04:54:00;;;;;;;4.72;1.00;;;;;;;19.09;100.00;100621.72;5027469;28;20037;-84
2022/08/01 04:56:26;;;;;;;1.95;0.77;;;;;;;19.37;100.00;100609.25;5027052;28;20409;-83
2022/08/01 04:59:39;;;;;;;2.40;0.95;;;;;;;19.59;100.00;100614.41;5028553;28;20032;-82
2022/08/01 05:01:37;;;;;;;6.18;0.90;;;;;;;19.93;100.00;100616.91;5028167;28;20033;-83
2022/08/01 05:04:03;;;;;;;3.50;0.50;;;;;;;20.24;100.00;100608.41;5028470;28;20369;-82
2022/08/01 05:06:28;;;;;;;1.80;0.50;;;;;;;20.43;100.00;100612.06;5028430;28;20032;-83
2022/08/01 05:08:54;;;;;;;1.38;0.60;;;;;;;20.63;100.00;100609.41;5028465;28;20029;-83
2022/08/01 05:11:21;;;;;;;0.95;0.50;;;;;;;20.78;100.00;100605.50;5028174;28;20083;-84
2022/08/01 05:13:47;;;;;;;1.95;0.60;;;;;;;20.92;100.00;100608.91;5028332;28;20384;-82
2022/08/01 05:16:13;;;;;;;0.95;0.57;;;;;;;21.06;100.00;100596.44;5028316;28;20060;-82
2022/08/01 05:18:38;;;;;;;2.28;0.40;;;;;;;21.17;99.21;100593.94;5028268;28;20422;-82
2022/08/01 05:21:04;;;;;;;2.10;0.70;;;;;;;21.30;99.56;100590.44;5028264;28;20175;-83
2022/08/01 05:23:29;;;;;;;1.10;0.60;;;;;;;21.45;98.57;100604.22;5028207;28;20061;-82
2022/08/01 05:25:55;;;;;;;2.08;0.68;;;;;;;21.59;95.95;100597.00;5026544;28;20456;-83
2022/08/01 05:28:20;;;;;;;4.05;0.77;;;;;;;21.72;98.45;100606.72;5028248;28;20025;-82
2022/08/01 05:30:45;;;;;;;5.43;1.08;;;;;;;21.75;99.73;100606.28;5026832;28;20038;-82
2022/08/01 05:33:11;;;;;;;3.22;0.80;;;;;;;21.75;99.88;100600.97;4991002;28;20462;-82
2022/08/01 05:35:36;;;;;;;1.38;0.60;;;;;;;21.84;98.84;100610.28;5016766;28;20350;-83
2022/08/01 05:38:02;;;;;;;5.22;0.68;;;;;;;21.89;97.51;100607.81;5028127;28;20103;-82
2022/08/01 05:40:27;;;;;;;1.98;0.40;;;;;;;21.95;96.86;100603.50;5026299;28;20032;-82
2022/08/01 05:43:01;;;;;;;4.70;0.50;;;;;;;21.95;94.97;100608.78;5026390;28;20037;-82
2022/08/01 05:45:26;;;;;;;1.45;0.50;;;;;;;22.01;95.79;100614.09;5025595;28;20119;-81
2022/08/01 05:47:52;;;;;;;2.95;0.60;;;;;;;22.05;94.73;100617.94;5027995;28;20421;-81
2022/08/01 05:50:17;;;;;;;3.60;0.40;;;;;;;22.11;93.48;100618.91;5026501;28;20041;-81
2022/08/01 05:52:43;;;;;;;1.67;0.70;;;;;;;22.22;91.76;100625.34;5028004;28;20083;-82
2022/08/01 05:55:09;;;;;;;2.15;0.40;;;;;;;22.42;90.69;100628.66;5027678;28;20382;-82
2022/08/01 05:57:34;;;;;;;2.03;0.50;;;;;;;22.60;89.99;100631.34;5027763;28;20503;-81
2022/08/01 05:59:59;;;;;;;4.82;0.50;;;;;;;22.75;90.14;100623.81;5026365;28;20029;-82
2022/08/01 06:02:25;;;;;;;3.90;0.47;;;;;;;22.87;86.99;100617.81;5030749;28;20154;-82
2022/08/01 06:04:51;;;;;;;2.47;0.68;;;;;;;23.05;90.00;100623.13;5031251;28;20532;-83
2022/08/01 06:07:16;;;;;;;0.95;0.47;;;;;;;23.14;89.64;100611.16;5031180;28;20036;-83
2022/08/01 06:09:42;;;;;;;3.33;0.52;;;;;;;23.22;87.38;100624.13;5029854;28;20037;-83
2022/08/01 06:12:07;;;;;;;0.80;0.60;;;;;;;23.22;87.10;100626.78;5030835;28;20025;-83
2022/08/01 06:14:33;;;;;;;5.50;0.50;;;;;;;23.20;86.07;100626.19;5030252;28;20112;-83
2022/08/01 06:16:58;;;;;;;1.08;0.50;;;;;;;23.17;86.38;100629.28;5030950;28;20041;-84
2022/08/01 06:19:26;;;;;;;2.55;0.40;;;;;;;23.34;85.73;100627.66;5030887;28;20029;-83
2022/08/01 06:21:51;;;;;;;2.90;0.55;;;;;;;23.54;84.24;100629.28;5029734;28;20033;-83
2022/08/01 06:24:16;;;;;;;1.25;1.05;;;;;;;23.76;85.19;100625.06;5030821;28;20057;-83
2022/08/01 06:26:42;;;;;;;2.42;0.50;;;;;;;23.96;84.74;100620.25;5012731;28;20123;-83
2022/08/01 06:29:07;;;;;;;1.98;0.57;;;;;;;24.12;83.74;100624.09;5030941;28;20021;-83
2022/08/01 06:31:33;;;;;;;2.78;0.50;;;;;;;24.17;82.54;100617.03;5014343;28;20036;-83
2022/08/01 06:34:01;;;;;;;0.88;0.40;;;;;;;24.23;81.32;100625.16;5028382;28;20188;-82
2022/08/01 06:36:27;;;;;;;1.00;0.40;;;;;;;24.34;80.55;100621.72;5030534;28;20079;-80
2022/08/01 06:38:52;;;;;;;4.22;0.50;;;;;;;24.54;79.56;100624.84;5012619;28;20025;-80
2022/08/01 06:41:17;;;;;;;1.85;0.50;;;;;;;24.69;79.11;100629.69;5011654;28;20068;-81
2022/08/01 06:43:43;;;;;;;1.13;0.40;;;;;;;24.72;77.50;100623.88;5030549;28;20037;-81
2022/08/01 06:46:08;;;;;;;0.95;0.40;;;;;;;24.77;76.93;100616.81;5029522;28;20049;-82
2022/08/01 06:48:39;;;;;;;5.20;0.40;;;;;;;24.80;76.30;100608.34;5030515;28;20025;-81
2022/08/01 06:51:07;;;;;;;1.33;0.38;;;;;;;25.05;76.74;100612.59;5025319;28;20064;-80
2022/08/01 06:53:34;;;;;;;0.68;0.30;;;;;;;25.21;74.52;100611.06;5018479;28;20025;-81
2022/08/01 06:56:10;;;;;;;3.60;0.40;;;;;;;25.26;74.55;100611.16;5030056;28;20032;-82
2022/08/01 06:58:36;;;;;;;2.30;0.40;;;;;;;25.43;74.16;100618.16;5012267;28;20155;-82
2022/08/01 07:01:05;;;;;;;2.80;0.40;;;;;;;25.60;73.26;100618.19;5029027;28;20488;-82
2022/08/01 07:03:31;;;;;;;2.30;0.40;;;;;;;25.65;73.46;100617.50;5030204;28;20040;-83
2022/08/01 07:05:57;;;;;;;0.63;0.40;;;;;;;25.59;73.18;100619.25;5029979;28;20049;-82
2022/08/01 07:08:22;;;;;;;0.80;0.40;;;;;;;25.59;72.90;100618.44;5029971;28;20033;-82
2022/08/01 07:10:48;;;;;;;1.20;0.40;;;;;;;25.58;73.05;100614.94;5030003;28;20692;-82
2022/08/01 07:13:16;;;;;;;2.70;0.60;;;;;;;25.55;72.08;100618.09;5028106;28;20064;-81
2022/08/01 07:15:41;;;;;;;1.25;0.38;;;;;;;25.65;71.58;100614.84;5028658;28;20124;-80
2022/08/01 07:18:06;;;;;;;0.80;0.50;;;;;;;25.80;71.66;100609.78;5029725;28;20117;-81
2022/08/01 07:20:32;;;;;;;3.03;0.40;;;;;;;25.95;71.18;100607.38;5029762;28;20116;-81
2022/08/01 07:22:57;;;;;;;1.02;0.50;;;;;;;26.04;70.85;100610.41;5028553;28;20080;-81
2022/08/01 07:25:23;;;;;;;1.50;0.43;;;;;;;26.24;70.00;100607.25;5010112;28;20025;-81
2022/08/01 07:27:48;;;;;;;1.48;0.40;;;;;;;26.25;69.43;100604.34;5011966;28;20172;-80
2022/08/01 07:30:14;;;;;;;1.23;0.55;;;;;;;26.27;69.31;100606.78;5029594;28;20370;-82
2022/08/01 07:32:40;;;;;;;3.90;0.60;;;;;;;26.56;69.06;100602.94;5027884;28;20049;-81
2022/08/01 07:35:06;;;;;;;2.05;0.50;;;;;;;26.82;68.41;100595.28;5019399;28;20369;-81
2022/08/01 07:37:31;;;;;;;6.80;0.60;;;;;;;26.98;67.91;100602.44;5009294;28;20041;-81
2022/08/01 07:39:56;;;;;;;2.10;0.40;;;;;;;26.86;68.68;100599.88;5017958;28;20059;-81
2022/08/01 07:42:22;;;;;;;2.03;0.40;;;;;;;26.94;67.97;100599.41;5028488;28;20033;-82
2022/08/01 07:44:47;;;;;;;2.63;0.40;;;;;;;27.26;66.22;100596.06;5028903;28;20029;-80
2022/08/01 07:47:13;;;;;;;1.05;0.30;;;;;;;27.12;64.75;100601.00;5018979;28;20029;-81
2022/08/01 07:49:39;;;;;;;2.42;0.40;;;;;;;26.87;65.39;100593.47;5013528;28;20038;-81
2022/08/01 07:52:04;;;;;;;2.67;0.45;;;;;;;26.78;67.03;100602.97;5014869;28;20025;-82
2022/08/01 07:54:33;;;;;;;1.30;0.20;;;;;;;26.79;67.50;100596.56;5020487;28;20033;-80
2022/08/01 07:56:59;;;;;;;0.85;0.40;;;;;;;26.90;66.00;100592.97;5021592;28;20116;-82
2022/08/01 07:59:24;;;;;;;0.40;0.25;;;;;;;27.07;63.58;100590.25;5020941;28;20025;-81
2022/08/01 08:01:52;;;;;;;1.27;0.20;;;;;;;27.32;62.68;100582.50;5025806;28;20041;-81
2022/08/01 08:04:22;;;;;;;1.95;0.40;;;;;;;27.32;62.30;100582.50;5024716;28;20093;-81
2022/08/01 08:06:48;;;;;;;1.75;0.30;;;;;;;27.36;62.13;100586.28;5027937;28;20037;-82
2022/08/01 08:09:15;;;;;;;0.40;0.20;;;;;;;27.46;61.81;100590.09;5027560;28;20072;-82
2022/08/01 08:11:42;;;;;;;2.38;0.30;;;;;;;27.55;61.40;100591.25;5023513;28;20488;-81
2022/08/01 08:14:08;;;;;;;0.60;0.25;;;;;;;27.44;63.43;100585.81;5022226;28;20074;-82
2022/08/01 08:16:33;;;;;;;0.60;0.30;;;;;;;27.35;64.32;100583.88;5026206;28;20497;-82
2022/08/01 08:18:58;;;;;;;4.15;0.30;;;;;;;27.16;62.50;100583.38;5014586;28;20061;-81
2022/08/01 08:21:24;;;;;;;0.90;0.20;;;;;;;27.19;62.72;100584.75;5016740;28;20025;-80
2022/08/01 08:26:33;;;;;;;1.50;0.20;;;;;;;27.34;63.17;100582.25;5013527;28;20061;-83
2022/08/01 08:28:58;;;;;;;0.47;0.30;;;;;;;27.49;62.18;100585.06;5028337;28;20437;-81
2022/08/01 08:31:24;;;;;;;0.50;0.30;;;;;;;27.85;59.60;100586.22;5027349;28;20034;-82
2022/08/01 08:33:49;;;;;;;1.40;0.40;;;;;;;28.23;59.63;100592.41;5022710;28;20062;-82
2022/08/01 08:36:14;;;;;;;0.80;0.32;;;;;;;28.20;59.33;100588.34;5020055;28;20117;-82
2022/08/01 08:38:40;;;;;;;3.15;0.38;;;;;;;28.07;60.76;100586.09;5015242;28;20030;-82
2022/08/01 08:41:06;;;;;;;1.98;0.30;;;;;;;28.16;59.97;100581.88;5022166;28;20030;-83
2022/08/01 08:43:31;;;;;;;1.17;0.40;;;;;;;28.22;59.77;100588.94;5015544;28;20026;-82
2022/08/01 08:45:57;;;;;;;1.48;0.20;;;;;;;28.25;58.84;100582.25;5024736;28;20478;-82
2022/08/01 08:48:23;;;;;;;3.33;0.40;;;;;;;28.54;57.99;100586.16;5026931;28;20025;-82
2022/08/01 08:50:50;;;;;;;0.55;0.20;;;;;;;28.61;58.22;100592.09;5030277;28;20009;-82
2022/08/01 08:53:16;;;;;;;0.60;0.17;;;;;;;28.44;57.56;100580.72;5048805;28;20021;-82
2022/08/01 08:55:43;;;;;;;1.40;0.20;;;;;;;28.29;55.82;100586.03;5049706;28;20057;-82
2022/08/01 08:58:19;;;;;;;0.52;0.22;;;;;;;28.46;49.28;100588.50;5028909;28;20043;-82
2022/08/01 09:00:45;;;;;;;0.55;0.10;;;;;;;28.92;53.34;100593.03;5025537;28;20861;-80
2022/08/01 09:03:12;;;;;;;2.72;0.10;;;;;;;29.24;51.38;100579.47;5023052;28;20029;-83
2022/08/01 09:05:37;;;;;;;1.85;0.20;;;;;;;29.43;49.23;100579.78;5020804;28;20061;-81
2022/08/01 09:08:07;;;;;;;1.10;0.20;;;;;;;29.43;48.42;100589.72;5026338;28;20610;-81
2022/08/01 09:10:32;;;;;;;1.10;0.20;;;;;;;29.29;51.33;100581.38;5010265;28;20025;-82
2022/08/01 09:13:04;;;;;;;2.47;0.28;;;;;;;29.39;50.36;100586.72;5026431;28;20555;-82
2022/08/01 09:15:40;;;;;;;1.35;0.20;;;;;;;29.48;47.16;100579.00;5026318;28;20109;-82
2022/08/01 09:18:07;;;;;;;1.15;0.20;;;;;;;29.20;51.08;100591.81;5009060;28;20034;-83
2022/08/01 09:20:35;;;;;;;0.73;0.20;;;;;;;29.08;50.67;100587.75;5019162;28;20045;-82
2022/08/01 09:23:05;;;;;;;0.40;0.20;;;;;;;29.27;48.41;100586.19;5027435;28;20040;-84
2022/08/01 09:25:58;;;;;;;0.50;0.20;;;;;;;29.22;43.44;100588.84;5009591;28;20362;-82
2022/08/01 09:28:29;;;;;;;1.20;0.30;;;;;;;29.34;47.89;100586.72;5022297;28;20068;-83
2022/08/01 09:31:00;;;;;;;0.40;0.20;;;;;;;29.52;48.27;100583.56;4997619;28;20440;-85
2022/08/01 09:33:49;;;;;;;1.30;0.15;;;;;;;29.47;38.51;100574.69;5017577;28;20110;-82
2022/08/01 09:36:15;;;;;;;2.25;0.20;;;;;;;29.64;48.60;100586.78;5017825;28;20349;-82
2022/08/01 09:38:40;;;;;;;1.63;0.17;;;;;;;29.79;49.56;100575.22;5014481;28;20129;-83
2022/08/01 09:41:07;;;;;;;8.90;0.30;;;;;;;29.91;47.91;100574.97;5021135;28;20424;-84
2022/08/01 09:43:33;;;;;;;2.83;0.73;;;;;;;29.71;47.76;100575.78;5020168;28;20033;-83
2022/08/01 09:46:04;;;;;;;64.25;4.10;;;;;;;29.75;47.21;100574.19;5005554;28;20029;-83
2022/08/01 09:49:02;;;;;;;12.30;1.05;;;;;;;29.74;40.66;100571.78;5028133;28;20507;-83
2022/08/01 09:51:38;;;;;;;1.23;0.10;;;;;;;29.80;41.35;100571.47;5031289;28;20025;-82
2022/08/01 09:54:06;;;;;;;2.67;0.20;;;;;;;29.91;45.20;100570.41;5014690;28;20059;-82
2022/08/01 09:57:02;;;;;;;0.52;0.17;;;;;;;29.86;41.22;100569.59;5029145;28;20101;-82
2022/08/01 09:59:39;;;;;;;2.95;0.20;;;;;;;29.95;43.18;100563.41;5021892;28;20068;-80
2022/08/01 10:02:05;;;;;;;0.40;0.10;;;;;;;30.04;47.77;100572.56;5011965;28;20484;-80
2022/08/01 10:04:30;;;;;;;2.08;0.20;;;;;;;30.20;47.42;100567.19;5010806;28;20026;-82
2022/08/01 10:07:05;;;;;;;2.55;0.28;;;;;;;30.31;42.37;100571.44;5029713;28;20531;-82
2022/08/01 10:09:34;;;;;;;2.38;0.20;;;;;;;30.28;46.75;100571.97;5029927;28;20029;-82
2022/08/01 10:12:00;;;;;;;0.52;0.15;;;;;;;30.09;47.30;100563.69;5030018;28;20040;-82
2022/08/01 10:14:27;;;;;;;3.45;0.20;;;;;;;30.06;47.24;100558.06;5011952;28;20501;-81
2022/08/01 10:16:55;;;;;;;0.90;0.20;;;;;;;30.19;47.59;100560.19;5029959;28;20040;-82
2022/08/01 10:19:28;;;;;;;2.20;0.30;;;;;;;30.41;45.50;100560.66;5011228;28;20655;-82
2022/08/01 10:21:55;;;;;;;1.60;0.20;;;;;;;30.56;46.19;100557.91;5010882;28;20532;-84
2022/08/01 10:24:22;;;;;;;0.57;0.10;;;;;;;30.59;44.28;100559.28;5011479;28;20688;-84
2022/08/01 10:27:07;;;;;;;1.15;0.30;;;;;;;30.57;43.68;100567.63;5023585;28;20127;-82
2022/08/01 10:29:55;;;;;;;2.95;0.20;;;;;;;30.63;45.00;100561.16;5020131;28;20390;-83
2022/08/01 10:32:21;;;;;;;2.55;0.20;;;;;;;30.49;47.22;100556.59;5021173;28;20451;-82
2022/08/01 10:34:49;;;;;;;1.23;0.20;;;;;;;30.49;45.76;100552.03;5019909;28;20044;-82
2022/08/01 10:37:14;;;;;;;0.75;0.15;;;;;;;30.36;45.95;100552.59;5017375;28;20029;-80
2022/08/01 10:39:40;;;;;;;0.68;0.20;;;;;;;30.20;45.73;100543.00;5029013;28;20022;-81
2022/08/01 10:42:06;;;;;;;2.08;0.20;;;;;;;30.20;45.46;100543.00;5028702;28;20032;-81
2022/08/01 10:44:31;;;;;;;0.45;0.20;;;;;;;30.27;45.42;100540.81;5029400;28;20026;-80
2022/08/01 10:47:13;;;;;;;2.40;0.30;;;;;;;30.45;43.67;100545.59;5029011;28;20052;-82
2022/08/01 10:50:11;;;;;;;0.77;0.20;;;;;;;30.62;42.20;100538.03;5021599;28;20053;-81
2022/08/01 10:52:44;;;;;;;0.75;0.15;;;;;;;30.51;45.22;100539.13;4962735;28;20101;-80
2022/08/01 10:55:09;;;;;;;1.15;0.20;;;;;;;30.44;45.35;100541.28;4954755;28;20053;-79
2022/08/01 10:57:47;;;;;;;1.00;0.20;;;;;;;30.46;44.19;100528.38;4950090;28;20047;-81
2022/08/01 11:00:21;;;;;;;2.63;0.30;;;;;;;30.54;45.03;100532.38;4955344;28;20041;-80
2022/08/01 11:03:01;;;;;;;3.60;0.22;;;;;;;30.40;41.84;100526.00;4961505;28;20732;-81
2022/08/01 11:05:30;;;;;;;0.73;0.20;;;;;;;30.32;45.29;100532.72;4967284;28;20417;-81
2022/08/01 11:08:00;;;;;;;1.20;0.20;;;;;;;30.36;42.15;100531.09;4952320;28;20050;-79
2022/08/01 11:10:45;;;;;;;0.50;0.10;;;;;;;30.00;39.34;100525.84;4968276;28;20053;-80
2022/08/01 11:13:11;;;;;;;0.93;0.17;;;;;;;29.98;44.71;100522.59;4973082;28;20038;-81
2022/08/01 11:15:41;;;;;;;0.93;0.20;;;;;;;30.07;41.59;100522.06;4964827;28;20041;-80
2022/08/01 11:18:27;;;;;;;2.30;0.20;;;;;;;30.08;39.19;100515.63;4968015;28;20041;-82
2022/08/01 11:21:01;;;;;;;3.20;0.20;;;;;;;30.11;40.80;100510.50;4955095;28;20751;-80
2022/08/01 11:23:46;;;;;;;2.75;0.28;;;;;;;30.02;43.81;100504.06;4946487;28;20482;-81
2022/08/01 11:26:12;;;;;;;;;;;;;;;29.89;37.84;100500.03;4944559;28;20062;-82
2022/08/01 11:28:39;;;;;;;3.15;0.25;;;;;;;30.02;47.35;100502.19;4982539;28;20005;-81
2022/08/01 11:31:07;;;;;;;4.18;0.60;;;;;;;30.09;46.85;100498.41;5019889;28;20025;-80
2022/08/01 11:33:42;;;;;;;2.47;0.20;;;;;;;30.17;45.91;100501.34;5019851;28;20045;-82
2022/08/01 11:36:13;;;;;;;1.48;0.38;;;;;;;30.15;46.97;100494.63;5021467;28;20030;-80
2022/08/01 11:38:44;;;;;;;1.77;0.22;;;;;;;30.14;45.61;100495.72;5027079;28;20025;-82